createdAt,value
2023-01-19T00:01:42.950Z,-2.60
2023-01-19T00:04:11.175Z,-2.56
2023-01-19T00:06:39.514Z,-2.55
2023-01-19T00:09:07.738Z,-2.64
2023-01-19T00:11:36.095Z,-2.68
2023-01-19T00:14:04.441Z,-2.77
2023-01-19T00:16:34.019Z,-2.79
2023-01-19T00:19:02.373Z,-2.72
2023-01-19T00:21:30.570Z,-2.76
2023-01-19T00:23:58.710Z,-2.80
2023-01-19T00:26:26.854Z,-2.79
2023-01-19T00:28:55.013Z,-2.92
2023-01-19T00:31:23.346Z,-2.90
2023-01-19T00:33:53.088Z,-2.98
2023-01-19T00:36:21.525Z,-2.82
2023-01-19T00:38:49.664Z,-2.82
2023-01-19T00:41:18.219Z,-3.11
2023-01-19T00:43:45.487Z,-3.01
2023-01-19T00:46:13.722Z,-2.97
2023-01-19T00:48:41.973Z,-3.08
2023-01-19T00:51:11.464Z,-3.21
2023-01-19T00:53:39.609Z,-3.32
2023-01-19T00:56:08.559Z,-3.53
2023-01-19T00:58:36.709Z,-3.54
2023-01-19T01:01:05.253Z,-3.54
2023-01-19T01:03:34.140Z,-3.63
2023-01-19T01:06:03.660Z,-3.62
2023-01-19T01:08:33.279Z,-3.62
2023-01-19T01:11:01.678Z,-3.66
2023-01-19T01:13:30.150Z,-3.65
2023-01-19T01:15:58.745Z,-3.63
2023-01-19T01:18:27.093Z,-3.72
2023-01-19T01:21:02.238Z,-3.74
2023-01-19T01:23:30.644Z,-3.70
2023-01-19T01:26:00.147Z,-3.70
2023-01-19T01:28:28.290Z,-3.60
2023-01-19T01:30:57.140Z,-3.53
2023-01-19T01:33:40.563Z,-3.66
2023-01-19T01:36:11.164Z,-3.69
2023-01-19T01:38:39.439Z,-3.44
2023-01-19T01:41:09.187Z,-3.51
2023-01-19T01:43:46.753Z,-3.59
2023-01-19T01:46:16.734Z,-3.65
2023-01-19T01:48:50.425Z,-3.58
2023-01-19T01:51:25.439Z,-3.58
2023-01-19T01:54:02.462Z,-3.49
2023-01-19T01:56:37.081Z,-3.57
2023-01-19T01:59:08.433Z,-3.62
2023-01-19T02:01:55.654Z,-3.69
2023-01-19T02:04:24.740Z,-3.81
2023-01-19T02:07:10.753Z,-3.88
2023-01-19T02:09:56.898Z,-3.95
2023-01-19T02:12:44.035Z,-3.89
2023-01-19T02:15:17.404Z,-3.88
2023-01-19T02:17:45.739Z,-4.04
2023-01-19T02:20:14.345Z,-3.98
2023-01-19T02:22:48.691Z,-4.08
2023-01-19T02:25:20.510Z,-3.98
2023-01-19T02:27:50.891Z,-4.09
2023-01-19T02:30:19.382Z,-4.07
2023-01-19T02:32:47.643Z,-4.15
2023-01-19T02:35:16.584Z,-4.19
2023-01-19T02:37:46.072Z,-4.29
2023-01-19T02:40:20.266Z,-4.27
2023-01-19T02:42:51.418Z,-4.27
2023-01-19T02:45:23.138Z,-4.31
2023-01-19T02:47:53.487Z,-4.22
2023-01-19T02:50:43.593Z,-4.13
2023-01-19T02:53:24.068Z,-4.17
2023-01-19T02:55:58.293Z,-4.16
2023-01-19T02:58:37.868Z,-4.32
2023-01-19T03:01:18.217Z,-4.28
2023-01-19T03:03:55.943Z,-4.39
2023-01-19T03:06:36.457Z,-4.32
2023-01-19T03:09:12.414Z,-4.40
2023-01-19T03:11:49.309Z,-4.40
2023-01-19T03:14:22.927Z,-4.47
2023-01-19T03:16:55.941Z,-4.50
2023-01-19T03:19:28.051Z,-4.56
2023-01-19T03:21:59.990Z,-4.57
2023-01-19T03:24:31.833Z,-4.59
2023-01-19T03:27:05.257Z,-4.59
2023-01-19T03:29:35.779Z,-4.59
2023-01-19T03:32:11.463Z,-4.61
2023-01-19T03:34:40.536Z,-4.58
2023-01-19T03:37:11.359Z,-4.47
2023-01-19T03:39:39.598Z,-4.43
2023-01-19T03:42:12.595Z,-4.15
2023-01-19T03:44:42.877Z,-4.07
2023-01-19T03:47:13.026Z,-4.19
2023-01-19T03:49:44.963Z,-4.22
2023-01-19T03:52:14.153Z,-3.99
2023-01-19T03:54:42.373Z,-4.09
2023-01-19T03:57:12.536Z,-3.99
2023-01-19T03:59:40.691Z,-4.10
2023-01-19T04:02:09.031Z,-3.94
2023-01-19T04:04:37.187Z,-4.04
2023-01-19T04:07:05.371Z,-4.15
2023-01-19T04:09:33.611Z,-4.14
2023-01-19T04:12:03.736Z,-4.23
2023-01-19T04:14:33.611Z,-4.00
2023-01-19T04:17:02.130Z,-4.19
2023-01-19T04:19:30.645Z,-4.00
2023-01-19T04:21:58.807Z,-3.84
2023-01-19T04:24:28.007Z,-3.80
2023-01-19T04:26:56.151Z,-3.77
2023-01-19T04:29:24.451Z,-3.95
2023-01-19T04:31:54.128Z,-3.82
2023-01-19T04:34:22.763Z,-3.76
2023-01-19T04:36:51.520Z,-3.88
2023-01-19T04:39:19.715Z,-3.97
2023-01-19T04:41:47.884Z,-3.97
2023-01-19T04:44:16.051Z,-4.02
2023-01-19T04:46:44.262Z,-3.94
2023-01-19T04:49:14.152Z,-4.08
2023-01-19T04:51:42.323Z,-3.89
2023-01-19T04:54:10.599Z,-3.75
2023-01-19T04:56:40.790Z,-3.86
2023-01-19T04:59:08.962Z,-4.10
2023-01-19T05:01:37.265Z,-4.11
2023-01-19T05:04:07.070Z,-3.90
2023-01-19T05:06:37.310Z,-3.88
2023-01-19T05:09:07.870Z,-4.00
2023-01-19T05:11:36.289Z,-3.88
2023-01-19T05:14:04.433Z,-4.05
2023-01-19T05:16:32.582Z,-3.92
2023-01-19T05:19:00.927Z,-3.75
2023-01-19T05:21:29.325Z,-3.98
2023-01-19T05:23:58.793Z,-3.97
2023-01-19T05:26:27.062Z,-3.99
2023-01-19T05:28:55.209Z,-3.79
2023-01-19T05:31:23.774Z,-3.90
2023-01-19T05:33:51.987Z,-3.84
2023-01-19T05:36:20.122Z,-3.86
2023-01-19T05:38:48.290Z,-3.92
2023-01-19T05:41:17.856Z,-3.87
2023-01-19T05:43:46.047Z,-4.11
2023-01-19T05:46:14.247Z,-3.98
2023-01-19T05:48:42.416Z,-3.91
2023-01-19T05:51:10.799Z,-3.91
2023-01-19T05:53:38.949Z,-4.09
2023-01-19T05:56:09.282Z,-4.06
2023-01-19T05:58:40.262Z,-4.37
2023-01-19T06:01:10.441Z,-4.01
2023-01-19T06:03:39.390Z,-3.98
2023-01-19T06:06:08.103Z,-4.09
2023-01-19T06:08:36.809Z,-4.16
2023-01-19T06:11:06.765Z,-4.14
2023-01-19T06:13:35.040Z,-4.05
2023-01-19T06:16:04.727Z,-4.00
2023-01-19T06:18:32.969Z,-4.07
2023-01-19T06:21:04.497Z,-4.08
2023-01-19T06:23:34.440Z,-4.13
2023-01-19T06:26:02.853Z,-4.16
2023-01-19T06:28:31.450Z,-4.21
2023-01-19T06:30:59.683Z,-4.22
2023-01-19T06:33:29.898Z,-4.23
2023-01-19T06:35:58.112Z,-4.09
2023-01-19T06:38:26.360Z,-4.25
2023-01-19T06:40:58.420Z,-4.39
2023-01-19T06:43:27.419Z,-4.25
2023-01-19T06:45:56.956Z,-4.20
2023-01-19T06:48:25.300Z,-4.42
2023-01-19T06:50:54.802Z,-4.32
2023-01-19T06:53:23.272Z,-4.61
2023-01-19T06:55:51.456Z,-4.70
2023-01-19T06:58:20.111Z,-4.70
2023-01-19T07:00:48.976Z,-4.67
2023-01-19T07:03:21.437Z,-4.83
2023-01-19T07:05:52.708Z,-5.04
2023-01-19T07:08:22.210Z,-4.90
2023-01-19T07:11:25.421Z,-4.95
2023-01-19T07:13:40.743Z,-4.71
2023-01-19T07:16:11.956Z,-4.71
2023-01-19T07:18:41.437Z,-4.61
2023-01-19T07:21:09.792Z,-4.81
2023-01-19T07:23:39.291Z,-4.62
2023-01-19T07:26:07.666Z,-4.72
2023-01-19T07:28:37.017Z,-4.79
2023-01-19T07:31:05.373Z,-4.76
2023-01-19T07:33:33.620Z,-4.81
2023-01-19T07:36:01.789Z,-4.72
2023-01-19T07:38:29.988Z,-4.74
2023-01-19T07:41:02.888Z,-4.74
2023-01-19T07:43:31.275Z,-4.86
2023-01-19T07:46:00.539Z,-4.82
2023-01-19T07:48:29.360Z,-4.68
2023-01-19T07:51:00.908Z,-4.62
2023-01-19T07:53:29.490Z,-4.57
2023-01-19T07:55:58.235Z,-4.27
2023-01-19T07:58:28.178Z,-4.36
2023-01-19T08:00:57.748Z,-4.28
2023-01-19T08:03:25.962Z,-4.25
2023-01-19T08:05:54.602Z,-4.29
2023-01-19T08:08:22.760Z,-4.21
2023-01-19T08:10:51.684Z,-4.12
2023-01-19T08:13:20.026Z,-4.02
2023-01-19T08:15:52.271Z,-4.11
2023-01-19T08:18:21.119Z,-3.99
2023-01-19T08:20:49.593Z,-4.00
2023-01-19T08:23:18.186Z,-3.89
2023-01-19T08:25:46.899Z,-3.81
2023-01-19T08:28:17.110Z,-3.65
2023-01-19T08:30:45.882Z,-3.67
2023-01-19T08:33:15.484Z,-3.66
2023-01-19T08:35:47.885Z,-3.53
2023-01-19T08:38:17.167Z,-3.47
2023-01-19T08:40:45.551Z,-3.28
2023-01-19T08:43:15.747Z,-3.34
2023-01-19T08:45:48.191Z,-3.16
2023-01-19T08:48:19.584Z,-3.07
2023-01-19T08:50:47.972Z,-3.07
2023-01-19T08:53:17.088Z,-2.94
2023-01-19T08:55:45.672Z,-2.93
2023-01-19T08:58:13.943Z,-2.61
2023-01-19T09:00:42.707Z,-2.52
2023-01-19T09:03:13.380Z,-2.65
2023-01-19T09:05:43.034Z,-2.55
2023-01-19T09:08:14.289Z,-2.44
2023-01-19T09:10:46.533Z,-2.21
2023-01-19T09:13:15.932Z,-2.35
2023-01-19T09:15:44.263Z,-2.10
2023-01-19T09:18:15.489Z,-2.04
2023-01-19T09:20:46.460Z,-2.19
2023-01-19T09:23:16.241Z,-2.21
2023-01-19T09:25:45.783Z,-2.06
2023-01-19T09:28:16.599Z,-1.86
2023-01-19T09:30:45.824Z,-1.86
2023-01-19T09:33:15.855Z,-1.66
2023-01-19T09:35:46.594Z,-1.54
2023-01-19T09:38:18.378Z,-1.85
2023-01-19T09:40:50.646Z,-1.77
2023-01-19T09:43:28.657Z,-1.84
2023-01-19T09:45:59.928Z,-1.74
2023-01-19T09:48:40.177Z,-1.79
2023-01-19T09:51:15.758Z,-1.97
2023-01-19T09:53:56.561Z,-1.74
2023-01-19T09:56:25.662Z,-1.63
2023-01-19T09:58:54.059Z,-1.79
2023-01-19T10:01:35.623Z,-1.73
2023-01-19T10:04:20.075Z,-1.60
2023-01-19T10:06:50.551Z,-1.75
2023-01-19T10:09:25.770Z,-1.66
2023-01-19T10:12:02.313Z,-1.76
2023-01-19T10:14:36.309Z,-1.53
2023-01-19T10:17:20.003Z,-1.24
2023-01-19T10:19:53.211Z,-1.22
2023-01-19T10:22:24.986Z,-1.42
2023-01-19T10:24:56.667Z,-1.32
2023-01-19T10:27:29.348Z,-1.35
2023-01-19T10:29:58.582Z,-1.32
2023-01-19T10:32:30.406Z,-1.26
2023-01-19T10:35:00.038Z,-0.96
2023-01-19T10:37:33.993Z,-1.25
2023-01-19T10:40:19.877Z,-0.80
2023-01-19T10:42:48.147Z,-1.15
2023-01-19T10:45:17.734Z,-0.95
2023-01-19T10:47:47.530Z,-0.96
2023-01-19T10:50:25.483Z,-0.90
2023-01-19T10:52:57.098Z,-0.86
2023-01-19T10:55:28.952Z,-0.77
2023-01-19T10:57:58.349Z,-0.75
2023-01-19T11:00:36.553Z,-0.82
2023-01-19T11:03:06.689Z,-0.78
2023-01-19T11:05:35.313Z,-0.86
2023-01-19T11:08:23.462Z,-0.67
2023-01-19T11:10:55.073Z,-0.54
2023-01-19T11:13:23.271Z,-0.47
2023-01-19T11:15:55.139Z,-0.49
2023-01-19T11:18:28.359Z,-0.52
2023-01-19T11:20:59.024Z,-0.46
2023-01-19T11:23:32.181Z,-0.56
2023-01-19T11:26:02.467Z,-0.39
2023-01-19T11:28:34.922Z,-0.34
2023-01-19T11:31:17.325Z,-0.09
2023-01-19T11:33:51.001Z,-0.13
2023-01-19T11:36:21.715Z,-0.31
2023-01-19T11:38:53.361Z,-0.33
2023-01-19T11:41:23.251Z,0.06
2023-01-19T11:43:54.443Z,-0.33
2023-01-19T11:46:25.206Z,-0.38
2023-01-19T11:49:01.909Z,-0.12
2023-01-19T11:51:36.180Z,-0.26
2023-01-19T11:54:18.765Z,-0.13
2023-01-19T11:56:49.341Z,-0.02
2023-01-19T11:59:17.739Z,0.02
2023-01-19T12:01:50.748Z,0.28
2023-01-19T12:04:27.571Z,0.39
2023-01-19T12:06:57.817Z,0.24
2023-01-19T12:09:30.773Z,0.55
2023-01-19T12:12:04.162Z,0.61
2023-01-19T12:14:39.142Z,0.47
2023-01-19T12:17:14.652Z,0.15
2023-01-19T12:19:47.200Z,0.46
2023-01-19T12:22:18.146Z,0.63
2023-01-19T12:24:55.599Z,-0.10
2023-01-19T12:27:38.841Z,0.22
2023-01-19T12:30:17.112Z,0.29
2023-01-19T12:32:45.390Z,0.32
2023-01-19T12:35:51.326Z,0.23
2023-01-19T12:38:41.013Z,0.31
2023-01-19T12:41:29.717Z,0.11
2023-01-19T12:44:34.136Z,0.17
2023-01-19T12:47:20.170Z,0.33
2023-01-19T12:49:50.750Z,0.16
2023-01-19T12:52:24.948Z,0.30
2023-01-19T12:55:01.467Z,0.20
2023-01-19T12:57:36.712Z,0.10
2023-01-19T13:00:09.324Z,0.24
2023-01-19T13:02:47.295Z,0.04
2023-01-19T13:05:25.068Z,0.11
2023-01-19T13:08:16.044Z,0.28
2023-01-19T13:11:14.210Z,0.34
2023-01-19T13:13:46.321Z,0.09
2023-01-19T13:17:02.236Z,0.15
2023-01-19T13:19:48.981Z,0.16
2023-01-19T13:23:03.526Z,0.40
2023-01-19T13:25:35.725Z,0.23
2023-01-19T13:28:10.196Z,0.03
2023-01-19T13:30:55.758Z,0.20
2023-01-19T13:33:26.171Z,0.06
2023-01-19T13:35:58.615Z,0.23
2023-01-19T13:38:28.882Z,0.04
2023-01-19T13:40:59.857Z,0.11
2023-01-19T13:43:32.335Z,0.04
2023-01-19T13:46:03.574Z,0.17
2023-01-19T13:48:33.202Z,0.06
2023-01-19T13:51:04.163Z,-0.09
2023-01-19T13:53:34.154Z,-0.08
2023-01-19T13:56:24.503Z,-0.13
2023-01-19T13:59:11.638Z,0.02
2023-01-19T14:01:44.999Z,0.00
2023-01-19T14:04:27.508Z,-0.25
2023-01-19T14:06:58.372Z,-0.15
2023-01-19T14:09:26.577Z,-0.16
2023-01-19T14:12:21.873Z,-0.15
2023-01-19T14:14:50.243Z,-0.33
2023-01-19T14:17:25.136Z,-0.27
2023-01-19T14:19:54.705Z,-0.34
2023-01-19T14:22:37.465Z,-0.28
2023-01-19T14:25:28.435Z,-0.46
2023-01-19T14:28:29.256Z,-0.45
2023-01-19T14:31:00.225Z,-0.49
2023-01-19T14:33:43.562Z,-0.57
2023-01-19T14:36:27.619Z,-0.57
2023-01-19T14:38:59.443Z,-0.61
2023-01-19T14:41:31.287Z,-0.72
2023-01-19T14:44:00.849Z,-0.84
2023-01-19T14:46:29.254Z,-0.79
2023-01-19T14:49:03.120Z,-0.72
2023-01-19T14:51:32.521Z,-0.76
2023-01-19T14:54:03.883Z,-0.82
2023-01-19T14:56:34.071Z,-0.74
2023-01-19T14:59:03.378Z,-0.74
2023-01-19T15:01:31.982Z,-0.77
2023-01-19T15:04:01.920Z,-0.80
2023-01-19T15:06:30.211Z,-0.87
2023-01-19T15:08:58.992Z,-1.01
2023-01-19T15:11:31.026Z,-0.94
2023-01-19T15:13:59.979Z,-1.05
2023-01-19T15:16:29.920Z,-1.01
2023-01-19T15:18:58.286Z,-0.98
2023-01-19T15:21:27.803Z,-1.02
2023-01-19T15:23:58.229Z,-1.05
2023-01-19T15:26:27.607Z,-1.22
2023-01-19T15:28:57.258Z,-1.36
2023-01-19T15:31:27.617Z,-1.35
2023-01-19T15:33:56.055Z,-1.32
2023-01-19T15:36:25.164Z,-1.20
2023-01-19T15:38:57.076Z,-1.27
2023-01-19T15:41:29.752Z,-1.30
2023-01-19T15:43:58.080Z,-1.36
2023-01-19T15:46:26.859Z,-1.54
2023-01-19T15:48:55.205Z,-1.34
2023-01-19T15:51:26.082Z,-1.38
2023-01-19T15:53:56.661Z,-1.43
2023-01-19T15:56:26.871Z,-1.48
2023-01-19T15:58:56.096Z,-1.48
2023-01-19T16:01:31.253Z,-1.60
2023-01-19T16:04:01.763Z,-1.59
2023-01-19T16:06:30.080Z,-1.51
2023-01-19T16:09:01.367Z,-1.52
2023-01-19T16:11:31.475Z,-1.55
2023-01-19T16:13:59.740Z,-1.57
2023-01-19T16:16:28.979Z,-1.59
2023-01-19T16:18:57.667Z,-1.72
2023-01-19T16:21:26.714Z,-1.91
2023-01-19T16:23:55.561Z,-1.70
2023-01-19T16:26:27.885Z,-1.88
2023-01-19T16:29:00.897Z,-1.87
2023-01-19T16:31:30.178Z,-1.77
2023-01-19T16:33:58.322Z,-1.79
2023-01-19T16:36:28.406Z,-1.82
2023-01-19T16:38:59.837Z,-2.02
2023-01-19T16:41:29.646Z,-1.86
2023-01-19T16:43:59.381Z,-1.92
2023-01-19T16:46:29.847Z,-1.91
2023-01-19T16:49:00.794Z,-2.21
2023-01-19T16:51:29.521Z,-2.08
2023-01-19T16:53:57.843Z,-2.25
2023-01-19T16:56:26.187Z,-2.43
2023-01-19T16:58:56.520Z,-2.20
2023-01-19T17:01:27.542Z,-2.16
2023-01-19T17:03:56.210Z,-2.07
2023-01-19T17:06:25.000Z,-2.08
2023-01-19T17:08:53.702Z,-2.09
2023-01-19T17:11:24.727Z,-2.15
2023-01-19T17:13:56.707Z,-1.97
2023-01-19T17:16:26.242Z,-1.97
2023-01-19T17:18:54.988Z,-2.10
2023-01-19T17:21:23.488Z,-2.33
2023-01-19T17:23:54.078Z,-2.34
2023-01-19T17:26:22.744Z,-2.34
2023-01-19T17:28:50.890Z,-2.23
2023-01-19T17:31:22.556Z,-2.24
2023-01-19T17:33:52.070Z,-2.22
2023-01-19T17:36:22.645Z,-2.20
2023-01-19T17:38:51.032Z,-2.21
2023-01-19T17:41:21.182Z,-2.32
2023-01-19T17:43:50.285Z,-2.37
2023-01-19T17:46:21.420Z,-2.46
2023-01-19T17:48:52.535Z,-2.40
2023-01-19T17:51:22.831Z,-2.33
2023-01-19T17:53:52.652Z,-2.39
2023-01-19T17:56:23.009Z,-2.31
2023-01-19T17:58:51.192Z,-2.22
2023-01-19T18:01:22.569Z,-2.36
2023-01-19T18:03:50.872Z,-2.30
2023-01-19T18:06:19.279Z,-2.36
2023-01-19T18:08:48.739Z,-2.35
2023-01-19T18:11:19.095Z,-2.27
2023-01-19T18:13:49.072Z,-2.44
2023-01-19T18:16:21.415Z,-2.57
2023-01-19T18:18:50.585Z,-2.51
2023-01-19T18:21:20.269Z,-2.57
2023-01-19T18:23:49.027Z,-2.63
2023-01-19T18:26:19.211Z,-2.66
2023-01-19T18:28:47.882Z,-2.68
2023-01-19T18:31:19.130Z,-2.78
2023-01-19T18:33:49.641Z,-2.87
2023-01-19T18:36:18.399Z,-2.79
2023-01-19T18:38:47.072Z,-2.65
2023-01-19T18:41:16.893Z,-2.62
2023-01-19T18:43:46.607Z,-2.45
2023-01-19T18:46:15.837Z,-2.35
2023-01-19T18:48:44.055Z,-2.19
2023-01-19T18:51:15.693Z,-2.22
2023-01-19T18:53:44.546Z,-2.19
2023-01-19T18:56:13.956Z,-2.23
2023-01-19T18:58:42.823Z,-2.11
2023-01-19T19:01:25.876Z,-2.08
2023-01-19T19:03:55.833Z,-2.08
2023-01-19T19:06:27.090Z,-1.88
2023-01-19T19:08:57.147Z,-1.99
2023-01-19T19:11:26.615Z,-2.04
2023-01-19T19:13:56.485Z,-2.05
2023-01-19T19:16:24.785Z,-2.23
2023-01-19T19:18:53.017Z,-1.99
2023-01-19T19:21:23.999Z,-2.11
2023-01-19T19:23:54.772Z,-2.22
2023-01-19T19:26:23.997Z,-2.18
2023-01-19T19:28:52.230Z,-2.28
2023-01-19T19:31:23.107Z,-2.36
2023-01-19T19:33:51.786Z,-2.50
2023-01-19T19:36:21.158Z,-2.38
2023-01-19T19:38:49.589Z,-2.45
2023-01-19T19:41:22.089Z,-2.47
2023-01-19T19:43:50.671Z,-2.40
2023-01-19T19:46:20.849Z,-2.34
2023-01-19T19:48:49.742Z,-2.29
2023-01-19T19:51:22.548Z,-2.46
2023-01-19T19:53:52.536Z,-2.41
2023-01-19T19:56:23.704Z,-2.44
2023-01-19T19:58:52.725Z,-2.43
2023-01-19T20:01:25.939Z,-2.52
2023-01-19T20:03:55.649Z,-2.50
2023-01-19T20:06:25.258Z,-2.72
2023-01-19T20:08:55.207Z,-2.98
2023-01-19T20:11:28.254Z,-2.82
2023-01-19T20:13:56.560Z,-2.69
2023-01-19T20:16:25.586Z,-2.73
2023-01-19T20:18:55.103Z,-2.72
2023-01-19T20:21:25.718Z,-2.64
2023-01-19T20:23:55.215Z,-2.69
2023-01-19T20:26:27.521Z,-2.76
2023-01-19T20:28:59.568Z,-2.69
2023-01-19T20:31:30.444Z,-2.72
2023-01-19T20:34:01.302Z,-2.66
2023-01-19T20:36:29.608Z,-2.71
2023-01-19T20:38:58.163Z,-2.79
2023-01-19T20:41:28.036Z,-2.63
2023-01-19T20:43:56.241Z,-2.58
2023-01-19T20:46:24.823Z,-2.62
2023-01-19T20:48:54.676Z,-2.64
2023-01-19T20:51:23.109Z,-2.59
2023-01-19T20:53:51.283Z,-2.57
2023-01-19T20:56:19.582Z,-2.72
2023-01-19T20:58:49.048Z,-2.60
2023-01-19T21:01:19.637Z,-2.62
2023-01-19T21:03:48.121Z,-2.61
2023-01-19T21:06:17.029Z,-2.62
2023-01-19T21:08:46.456Z,-2.56
2023-01-19T21:11:14.611Z,-2.53
2023-01-19T21:13:42.855Z,-2.53
2023-01-19T21:16:12.909Z,-2.52
2023-01-19T21:18:41.166Z,-2.73
2023-01-19T21:21:20.778Z,-2.59
2023-01-19T21:23:53.780Z,-2.46
2023-01-19T21:26:22.242Z,-2.60
2023-01-19T21:28:50.928Z,-2.36
2023-01-19T21:31:22.604Z,-2.58
2023-01-19T21:33:53.547Z,-2.52
2023-01-19T21:36:24.633Z,-2.59
2023-01-19T21:38:52.992Z,-2.55
2023-01-19T21:41:21.435Z,-2.47
2023-01-19T21:43:49.619Z,-2.57
2023-01-19T21:46:21.631Z,-2.36
2023-01-19T21:48:49.967Z,-2.47
2023-01-19T21:51:18.187Z,-2.17
2023-01-19T21:53:46.803Z,-2.04
2023-01-19T21:56:16.771Z,-2.14
2023-01-19T21:58:46.275Z,-1.96
2023-01-19T22:01:14.938Z,-1.93
2023-01-19T22:03:44.688Z,-1.93
2023-01-19T22:06:15.946Z,-2.19
2023-01-19T22:08:46.433Z,-1.82
2023-01-19T22:11:16.853Z,-1.78
2023-01-19T22:13:45.676Z,-1.79
2023-01-19T22:16:17.039Z,-1.71
2023-01-19T22:18:50.163Z,-1.90
2023-01-19T22:21:20.080Z,-1.97
2023-01-19T22:23:49.683Z,-1.91
2023-01-19T22:26:17.871Z,-1.99
2023-01-19T22:28:46.379Z,-1.82
2023-01-19T22:31:16.409Z,-1.77
2023-01-19T22:33:46.194Z,-1.65
2023-01-19T22:36:16.607Z,-1.66
2023-01-19T22:38:45.491Z,-1.61
2023-01-19T22:41:16.129Z,-1.47
2023-01-19T22:43:45.189Z,-1.53
2023-01-19T22:46:13.410Z,-1.59
2023-01-19T22:48:41.644Z,-1.66
2023-01-19T22:51:11.575Z,-1.52
2023-01-19T22:53:40.343Z,-1.31
2023-01-19T22:56:13.255Z,-1.31
2023-01-19T22:58:44.131Z,-1.28
2023-01-19T23:01:13.637Z,-1.35
2023-01-19T23:03:42.780Z,-1.31
2023-01-19T23:06:14.421Z,-1.27
2023-01-19T23:08:43.465Z,-1.31
2023-01-19T23:11:14.101Z,-1.31
2023-01-19T23:13:42.325Z,-1.27
2023-01-19T23:16:11.579Z,-1.35
2023-01-19T23:18:40.186Z,-1.35
2023-01-19T23:21:10.349Z,-1.32
2023-01-19T23:23:40.051Z,-1.18
2023-01-19T23:26:10.540Z,-1.18
2023-01-19T23:28:39.562Z,-1.09
2023-01-19T23:31:15.435Z,-1.11
2023-01-19T23:33:44.315Z,-1.20
2023-01-19T23:36:13.110Z,-1.16
2023-01-19T23:38:42.923Z,-1.20
2023-01-19T23:41:11.175Z,-1.11
2023-01-19T23:43:39.382Z,-0.98
2023-01-19T23:46:09.566Z,-0.89
2023-01-19T23:48:38.403Z,-1.01
2023-01-19T23:51:07.644Z,-1.06
2023-01-19T23:53:36.251Z,-0.95
2023-01-19T23:56:17.409Z,-0.87
2023-01-19T23:58:46.354Z,-0.81
